Hlavní strana
METAR-TAF:

METAR-TAF

Letiště :

Jasper County, Indiana, Spojené státy americké

zeměpisná šířka: 40-56-52N, zeměpisná délka: 087-10-57W, výška: 213 m

Aktuální stav počasí

Zpráva byla vytvořena před 26 minutami, v 13:35 UTC
Bezvětří
Teplota -1°C
Vlhkost vzduchu 93%
Tlak 1028 hPa
Viditelnost: 8.0 km
Jasno
kouřmo

METAR: KRZL 181335Z AUTO 00000KT 5SM BR CLR M01/M02 A3036 RMK AO2

Čas: 10:01 (14:01 UTC)


TAF: chybějící

Stav a předpovědi počasí z více než 4 000 letišť (zprávy METAR a TAF).

Červené a žluté tečky na mapě představují dostupné meteorologické stanice.

Když kurzor umístíte na tečku, zobrazí se název stanice.

Pak kliknutím zobrazíte stav a předpověď počasí.

Chcete-li změnit mapu, kliknutím na zelené tlačítko se znaménkem +mapu přiblížíte, kliknutím na zelené tlačítko se znaménkem – mapu oddálíte a kliknutím na zelené šipky přejdete na sousední mapy.


METAR-TAF: